HTZA/ZNZ METAR and TAF weather

Enter ICAO airport designator
Station Type Date Time Source
HTZA METAR 2018/10/21 06:00 UTC NOAA

HTZA 210600Z 00000KT 9999 SCT018 28/24 Q1015 NOSIG


Station Type Date Time Source
HTZA Decoded METAR 2018/10/21 06:00 UTC NOAA

Zanzibar / Kisauni, Tanzania (HTZA) 06-13S 039-13E 15M
Oct 21, 2018 - 02:00 AM EDT / 2018.10.21 0600 UTC
Wind: Calm:0
Visibility: greater than 7 mile(s):0
Sky conditions: partly cloudy
Temperature: 82 F (28 C)
Dew Point: 75 F (24 C)
Relative Humidity: 78%
Pressure (altimeter): 29.97 in. Hg (1015 hPa)
ob: HTZA 210600Z 00000KT 9999 SCT018 28/24 Q1015 NOSIG
cycle: 6

Station Type Date Time Source
HTZA TAF 2018/10/21 00:51 UTC NOAA

TAF TAF HTZA 202300Z 2100/2124 00000KT 9999 FEW018
BECMG 2103/2105 BKN018
BECMG 2110/2112 14015KT SCT022
BECMG 2119/2121 00000KT


Example: see airport list